CCGS Samuel Risley — CG2960 — position and weather

sailwx.info

Track history (hours):
 
Tides and Currents Weather Stations Pressure Air Temp Water Temp Dewpoint Dewpoint Depression Visibility Wind Speed Wind Dir Waves Ship Positions

CCGS Samuel Risley (Canada)

Medium Navaids Tender - Light Icebreaker

Last reported at 2017-Jan-18 11:00 UTC. Time now 2017-Jan-18 12:11 UTC.
Position N 43°18' W 082°24'.

Length 69.73 m; beam 13.7 m; draft 5.2 m.

Type: SAR. MMSI: 316001890.

Wind from 280 at 8 knots

Barometer 1015.1 mb
Air temperature 1.3 ° C
Dewpoint 1.2 ° C

Date/timePositionNaut miles runAvg speedWind from/ knotsBaromVisibWave heightAir tempDewpointWater temp
2017-Jan-18 11:00N 43°18' W 082°24'1212.0 280 / 81015.1 1.3 1.2
2017-Jan-18 10:00N 43°30' W 082°24'1212.0 280 / 71014.3 0.8 0.7
2017-Jan-18 09:00N 43°42' W 082°24'6 6.0 280 / 81013.5 1.1 1.0
2017-Jan-18 08:00N 43°48' W 082°24'1312.8 280 / 111012.8 1.5 1.4
2017-Jan-18 07:00N 44°00' W 082°30'1212.0 320 / 141012.2 2.1 2.0
2017-Jan-18 06:00N 44°12' W 082°30'7 7.4 320 / 151011.5 2.1 2.0
2017-Jan-18 05:00N 44°18' W 082°36'1312.7 310 / 131011.3 2.2 2.1
2017-Jan-18 04:00N 44°30' W 082°42'7 7.4 300 / 81011.1 2.2 2.1
2017-Jan-18 03:00N 44°36' W 082°48'1212.0 030 / 41011.0 2.0 1.7
2017-Jan-18 02:00N 44°48' W 082°48'7 7.4 040 / 101011.0 1.7 1.4
2017-Jan-18 01:00N 44°54' W 082°54'1212.0 360 / 81011.1 1.6 1.2
2017-Jan-18 00:00N 45°06' W 082°54'1514.7 020 / 71011.4 1.4 1.0
2017-Jan-17 23:00N 45°18' W 083°06'6 6.0 030 / 71011.4 1.6 1.1
2017-Jan-17 22:00N 45°24' W 083°06'1312.7 010 / 71011.4 1.3 0.6
2017-Jan-17 21:00N 45°36' W 083°12'6 6.0 360 / 71010.9 1.0-0.3
2017-Jan-17 20:00N 45°42' W 083°12'1212.0 350 / 91011.7 -0.4-2.3
2017-Jan-17 19:00N 45°54' W 083°12'7 7.3 010 / 91012.8 -1.4-3.5
2017-Jan-17 18:00N 46°00' W 083°18'1514.6 060 / 191013.2 -0.6-2.7
2017-Jan-17 17:00N 46°12' W 083°30'6 6.0 030 / 111014.6 -0.1-2.2
2017-Jan-17 16:00N 46°18' W 083°30'1212.0 060 / 81015.4 -0.4-2.6
2017-Jan-17 15:00N 46°06' W 083°30'1514.6 080 / 151016.4 -1.3-2.4
2017-Jan-17 14:00N 45°54' W 083°18'7 7.3 080 / 151016.6 -1.8-2.7
2017-Jan-17 13:00N 45°48' W 083°12'7 7.3 090 / 141016.5 0.2-1.0
2017-Jan-17 12:00N 45°42' W 083°06'1010.3 090 / 141016.5 1.0-0.1
2017-Jan-17 11:00N 45°36' W 082°54'7 7.3 090 / 171017.3 1.9 0.7
2017-Jan-17 10:00N 45°30' W 082°48'1312.6 110 / 121018.6 3.9-1.3
2017-Jan-17 09:00N 45°30' W 082°30'1010.3 120 / 101019.8 2.8-2.3
2017-Jan-17 08:00N 45°24' W 082°18'8 8.4 110 / 91020.2 2.5-2.2
2017-Jan-17 07:00N 45°24' W 082°06'8 8.4 150 / 71020.8 2.4-2.7
2017-Jan-17 06:00N 45°24' W 081°54'1010.3 170 / 61021.3 1.8-1.0
2017-Jan-17 05:00N 45°18' W 081°42'1312.7 190 / 61022.0 1.6-0.8
2017-Jan-17 04:00N 45°18' W 081°24'1010.4 200 / 121022.6 1.6-1.1
2017-Jan-17 03:00N 45°12' W 081°12'1514.7 190 / 111023.2 0.8-0.8
2017-Jan-17 02:00N 45°00' W 081°00'7 7.4 160 / 91023.5 0.5-2.0
2017-Jan-17 01:00N 44°54' W 080°54'1212.0 180 / 111024.2 0.2-3.4
2017-Jan-17 00:00N 44°42' W 080°54'6 6.0 220 / 101024.8 -0.3-3.6
2017-Jan-16 23:00N 44°36' W 080°54'0 0.0 180 / 31024.8 1.6-3.2
2017-Jan-16 22:00N 44°36' W 080°54'0 0.0 160 / 21024.8 0.7-3.4
2017-Jan-16 21:00N 44°36' W 080°54'0 0.0 200 / 41024.6 1.7-3.6
2017-Jan-16 20:00N 44°36' W 080°54'0 0.0 210 / 41024.4 1.5-3.6
2017-Jan-16 19:00N 44°36' W 080°54'0 0.0 200 / 41025.0 1.3-3.0
2017-Jan-16 18:00N 44°36' W 080°54'0 0.0 200 / 61026.0 0.5-3.4
2017-Jan-16 17:00N 44°36' W 080°54'0 0.0 200 / 61026.7 -0.1-3.7
2017-Jan-16 16:00N 44°36' W 080°54'0 0.0 200 / 51027.5 -0.6-3.9
2017-Jan-16 15:00N 44°36' W 080°54'0 0.0 200 / 61027.3 -1.2-4.1
2017-Jan-16 14:00N 44°36' W 080°54'0 0.0 180 / 41027.0 -1.7-4.1
2017-Jan-16 13:00N 44°36' W 080°54'0 0.0 180 / 31026.9 -2.6-4.6
2017-Jan-16 12:00N 44°36' W 080°54'0 0.0 180 / 31026.9 -3.2-4.8
2017-Jan-16 11:00N 44°36' W 080°54'0 0.0 170 / 51026.4 -3.6-5.2
2017-Jan-16 10:00N 44°36' W 080°54'0 0.0 170 / 51026.6 -3.3-5.2
2017-Jan-16 09:00N 44°36' W 080°54'0 0.0 170 / 71027.0 -3.0-5.1
2017-Jan-16 08:00N 44°36' W 080°54'0 0.0 180 / 31027.3 -3.5-5.9
2017-Jan-16 07:00N 44°36' W 080°54'0 0.0 190 / 31027.0 -3.9-6.2
2017-Jan-16 06:00N 44°36' W 080°54'0 0.0 170 / 51027.2 -3.2-5.7
2017-Jan-16 05:00N 44°36' W 080°54'0 0.0 170 / 61027.4 -3.2-5.8
2017-Jan-16 04:00N 44°36' W 080°54'0 0.0 170 / 41027.7 -2.9-5.9
2017-Jan-16 03:00N 44°36' W 080°54'0 0.0 170 / 31027.8 -2.7-6.2
2017-Jan-16 02:00N 44°36' W 080°54'0 0.0 190 / 31027.7 -3.2-6.4
2017-Jan-16 01:00N 44°36' W 080°54'0 0.0 170 / 31028.0 -1.9-6.1
2017-Jan-16 00:00N 44°36' W 080°54'0 0.0 200 / 31028.4 -1.8-6.6
2017-Jan-15 23:00N 44°36' W 080°54'0 0.0 220 / 51028.1 -1.1-6.1
2017-Jan-15 22:00N 44°36' W 080°54'0 0.0 210 / 61028.2 -0.7-5.9
2017-Jan-15 21:00N 44°36' W 080°54'0 0.0 200 / 51028.2 -0.0-5.9
2017-Jan-15 20:00N 44°36' W 080°54'0 0.0 190 / 21028.6 0.7-4.5
2017-Jan-15 19:00N 44°36' W 080°54'0 0.0 190 / 41028.4 0.1-5.8
2017-Jan-15 18:00N 44°36' W 080°54'0 0.0 160 / 51029.3 -0.6-6.2
2017-Jan-15 17:00N 44°36' W 080°54'0 0.0 200 / 21030.0 0.1-6.5
2017-Jan-15 16:00N 44°36' W 080°54'0 0.0 130 / 41030.6 -1.8-7.2
2017-Jan-15 15:00N 44°36' W 080°54'0 0.0 130 / 11030.7 -1.6-6.8
2017-Jan-15 14:00N 44°36' W 080°54'0 0.0 010 / 31030.4 -2.2-7.1
2017-Jan-15 13:00N 44°36' W 080°54'0 0.0 330 / 61030.2 -2.9-7.0
2017-Jan-15 12:00N 44°36' W 080°54'0 0.0 330 / 61029.9 -3.0-7.7
2017-Jan-15 11:00N 44°36' W 080°54'0 0.0 330 / 31029.5 -2.8-7.1
2017-Jan-15 10:00N 44°36' W 080°54'0 0.0 330 / 41029.2 -2.6-6.8
2017-Jan-15 09:00N 44°36' W 080°54'0 0.0 340 / 61028.8 -2.1-6.2
2017-Jan-15 08:00N 44°36' W 080°54'0 0.0 300 / 11028.6 -1.8-6.1
2017-Jan-15 07:00N 44°36' W 080°54'0 0.0 250 / 21028.4 -2.0-6.2
2017-Jan-15 06:00N 44°36' W 080°54'0 0.0 290 / 11028.3 -2.3-6.1
2017-Jan-15 05:00N 44°36' W 080°54'0 0.0 250 / 11028.5 -2.6-6.8
2017-Jan-15 04:00N 44°36' W 080°54'0 0.0 200 / 21028.3 -2.3-7.2
2017-Jan-15 03:00N 44°36' W 080°54'0 0.0 190 / 31028.5 -3.1-7.7
2017-Jan-15 02:00N 44°36' W 080°54'0 0.0 190 / 21028.2 -3.0-8.1
2017-Jan-15 01:00N 44°36' W 080°54'0 0.0 190 / 41028.2 -3.1-7.8
2017-Jan-15 00:00N 44°36' W 080°54'0 0.0 190 / 31028.3 -2.7-7.4
2017-Jan-14 23:00N 44°36' W 080°54'0 0.0 160 / 51028.2 -1.9-5.8
2017-Jan-14 22:00N 44°36' W 080°54'0 0.0 170 / 51028.5 -1.9-6.3
2017-Jan-14 21:00N 44°36' W 080°54'0 0.0 200 / 41028.6 -2.5-7.3
2017-Jan-14 20:00N 44°36' W 080°54'0 0.0 210 / 51029.3 -3.0-8.0
2017-Jan-14 19:00N 44°36' W 080°54'0 0.0 210 / 41030.0 -3.1-8.3
2017-Jan-14 18:00N 44°36' W 080°54'0 0.0 220 / 61031.1 -3.8-9.0
2017-Jan-14 17:00N 44°36' W 080°54'0 0.0 170 / 51032.5 -3.7-9.0
2017-Jan-14 16:00N 44°36' W 080°54'0 0.0 190 / 71033.8 -5.0-9.8
2017-Jan-14 15:00N 44°36' W 080°54'0 0.0 170 / 51035.0 -5.3-9.9
2017-Jan-14 14:00N 44°36' W 080°54'0 0.0 160 / 61035.8 -6.2-10.6
2017-Jan-14 13:00N 44°36' W 080°54'0 0.0 160 / 61036.5 -7.1-11.6
2017-Jan-14 12:00N 44°36' W 080°54'0 0.0 160 / 51037.2 -6.9-11.5
2017-Jan-14 10:00N 44°36' W 080°54'0 0.0 180 / 21038.8 -7.6-13.0
2017-Jan-14 09:00N 44°36' W 080°54'0 0.0 170 / 31039.2 -7.7-13.5
2017-Jan-14 08:00N 44°36' W 080°54'0 0.0 140 / 31039.9 -8.4-13.9
2017-Jan-14 07:00N 44°36' W 080°54'0 0.0 150 / 41040.6 -8.6-14.2
2017-Jan-14 06:00N 44°36' W 080°54'0 0.0 120 / 21041.7 -9.0-14.5
2017-Jan-14 05:00N 44°36' W 080°54'0 0.0 140 / 41042.4 -8.9-14.5
2017-Jan-14 04:00N 44°36' W 080°54'0 0.0 090 / 31042.8 -9.0-14.4
2017-Jan-14 03:00N 44°36' W 080°54'0 0.0 050 / 31043.6 -8.3-13.6
2017-Jan-14 02:00N 44°36' W 080°54'0 0.0 330 / 81044.2 -8.9-14.2
2017-Jan-14 01:00N 44°36' W 080°54'0 0.0 340 / 71044.3 -9.1-15.1
2017-Jan-14 00:00N 44°36' W 080°54'0 0.0 350 / 51044.5 -8.9-14.7
2017-Jan-13 23:00N 44°36' W 080°54'0 0.0 270 / 11043.8 -8.1-14.0
2017-Jan-13 22:00N 44°36' W 080°54'0 0.0 330 / 51043.2 -7.6-13.7
2017-Jan-13 21:00N 44°36' W 080°54'0 0.0 360 / 51042.8 -7.1-12.9
2017-Jan-13 20:00N 44°36' W 080°54'1212.0 350 / 91041.8 -6.9-12.5
2017-Jan-13 19:00N 44°48' W 080°54'6 6.0 340 / 151041.2 -7.1-11.8
2017-Jan-13 18:00N 44°54' W 080°54'1514.7 330 / 151041.0 -6.4-11.4
2017-Jan-13 17:00N 45°06' W 081°06'1514.7 340 / 161041.2 -5.7-11.8
2017-Jan-13 16:00N 45°18' W 081°18'8 8.4 300 / 151040.6 -8.3-12.8
2017-Jan-13 15:00N 45°18' W 081°30'1312.7 330 / 171039.5 -8.0-11.8
2017-Jan-13 14:00N 45°30' W 081°36'1212.0 340 / 171038.3 -8.0-11.8
2017-Jan-13 13:00N 45°42' W 081°36'1212.0 320 / 111036.2 -9.0-13.6
2017-Jan-13 12:00N 45°54' W 081°36'4 4.2 300 / 201034.3 -8.3-13.8
2017-Jan-13 11:00N 45°54' W 081°42'0 0.0 300 / 51032.5 -9.0-13.8
2017-Jan-13 10:00N 45°54' W 081°42'0 0.0 300 / 61031.5 -9.0-13.5
2017-Jan-13 09:00N 45°54' W 081°42'0 0.0 300 / 71029.5 -8.9-13.3
2017-Jan-13 08:00N 45°54' W 081°42'0 0.0 300 / 81027.8 -8.6-13.3
2017-Jan-13 07:00N 45°54' W 081°42'0 0.0 300 / 101025.4 -8.5-13.1
2017-Jan-13 06:00N 45°54' W 081°42'0 0.0 300 / 101023.0 -7.7-12.1
2017-Jan-13 05:00N 45°54' W 081°42'0 0.0 280 / 241021.7 -7.3-11.9
2017-Jan-13 03:00N 45°54' W 081°42'0 0.0 230 / 151019.1 -4.3-8.0
2017-Jan-13 02:00N 45°54' W 081°42'0 0.0 220 / 91018.9 -3.7-8.3
2017-Jan-13 01:00N 45°54' W 081°42'0 0.0 180 / 101018.7 -7.3-10.3
2017-Jan-13 00:00N 45°54' W 081°42'0 0.0 220 / 91017.9 -8.1-10.9
2017-Jan-12 23:00N 45°54' W 081°42'0 0.0 200 / 41017.4 -8.7-11.4
2017-Jan-12 22:00N 45°54' W 081°42'0 0.0 260 / 61016.9 -6.4-10.8
2017-Jan-12 21:00N 45°54' W 081°42'0 0.0 270 / 41016.3 -6.1-11.4
2017-Jan-12 20:00N 45°54' W 081°42'0 0.0 340 / 21015.5 -7.9-12.8
2017-Jan-12 19:00N 45°54' W 081°42'0 0.0 340 / 31015.2 -8.2-12.5
2017-Jan-12 18:00N 45°54' W 081°42'0 0.0 340 / 61015.4 -8.9-12.5
2017-Jan-12 17:00N 45°54' W 081°42'0 0.0 350 / 31015.8 -8.8-12.2
2017-Jan-12 16:00N 45°54' W 081°42'0 0.0 340 / 71016.3 -8.8-11.7
2017-Jan-12 15:00N 45°54' W 081°42'0 0.0 350 / 111014.2 -8.2-10.6
2017-Jan-12 14:00N 45°54' W 081°42'0 0.0 010 / 101013.7 -7.3-9.6
2017-Jan-12 13:00N 45°54' W 081°42'0 0.0 360 / 91013.1 -7.1-9.4
2017-Jan-12 12:00N 45°54' W 081°42'0 0.0 360 / 101013.1 -5.9-8.6
2017-Jan-12 11:00N 45°54' W 081°42'0 0.0 020 / 131011.3 -6.4-9.5
2017-Jan-12 10:00N 45°54' W 081°42'0 0.0 020 / 141011.2 -5.9-9.0
2017-Jan-12 09:00N 45°54' W 081°42'0 0.0 010 / 151010.4 -5.4-7.8
2017-Jan-12 08:00N 45°54' W 081°42'0 0.0 360 / 111009.1 -4.5-6.1
2017-Jan-12 07:00N 45°54' W 081°42'0 0.0 330 / 121008.9 -3.7-4.6
2017-Jan-12 06:00N 45°54' W 081°42'0 0.0 340 / 41008.0 -2.9-3.2
2017-Jan-12 05:00N 45°54' W 081°42'7 7.3 280 / 141008.0 -3.1-3.8
2017-Jan-12 04:00N 45°48' W 081°36'6 6.0 290 / 191007.8 -2.0-3.1
2017-Jan-12 03:00N 45°42' W 081°36'1212.0 270 / 141007.2 0.6-0.5
2017-Jan-12 02:00N 45°30' W 081°36'1312.7 170 / 111008.5 3.2 1.7
2017-Jan-12 01:00N 45°18' W 081°30'1010.4 160 / 81007.5 3.7 1.7
2017-Jan-12 00:00N 45°12' W 081°18'7 7.3 210 / 181008.7 4.6 2.4
2017-Jan-11 23:00N 45°06' W 081°12'1717.5 140 / 81008.3 5.3 0.1
2017-Jan-11 22:00N 44°54' W 080°54'1312.8 110 / 91009.7 4.2-1.7
2017-Jan-11 21:00N 44°54' W 080°36'9 8.5 100 / 121011.4 3.5-1.0
2017-Jan-11 20:00N 44°54' W 080°24'1312.8 100 / 101013.3 2.7-2.7
2017-Jan-11 19:00N 44°54' W 080°06'9 8.5 160 / 151014.2 3.0-3.4
2017-Jan-11 18:00N 44°54' W 079°54'0 0.0 130 / 81014.1 2.3-5.0
2017-Jan-11 17:00N 44°54' W 079°54'0 0.0 150 / 11015.8 1.5-4.5
2017-Jan-11 16:00N 44°54' W 079°54'0 0.0 210 / 101017.0 0.6-4.3
2017-Jan-11 15:00N 44°54' W 079°54'0 0.0 240 / 141016.3 0.4-3.9
2017-Jan-11 14:00N 44°54' W 079°54'0 0.0 240 / 191015.7 0.6-3.9
2017-Jan-11 13:00N 44°54' W 079°54'0 0.0 250 / 191014.0 1.1-4.0
2017-Jan-11 12:00N 44°54' W 079°54'0 0.0 250 / 191011.2 1.7-4.2
2017-Jan-11 11:00N 44°54' W 079°54'0 0.0 240 / 231008.4 2.0-2.7
2017-Jan-11 09:00N 44°54' W 079°54'0 0.0 250 / 231004.0 2.6-1.6
2017-Jan-11 06:00N 44°54' W 079°54'0 0.0 240 / 22994.9 4.5 2.0
2017-Jan-11 05:00N 44°54' W 079°54'0 0.0 190 / 17993.2 6.9 4.6
2017-Jan-11 04:00N 44°54' W 079°54'0 0.0 170 / 20993.3 6.5 4.5
2017-Jan-11 03:00N 44°54' W 079°54'0 0.0 160 / 20994.5 5.1 3.7
2017-Jan-11 01:00N 44°54' W 079°54'0 0.0 150 / 25997.6 2.9 1.6
2017-Jan-10 23:00N 44°54' W 079°54'0 0.0 140 / 241001.9 0.9 0.5
2017-Jan-10 22:00N 44°54' W 079°54'0 0.0 140 / 191004.7 -0.0-0.4
2017-Jan-10 21:00N 44°54' W 079°54'0 0.0 140 / 191006.6 -0.6-1.7
2017-Jan-10 20:00N 44°54' W 079°54'0 0.0 140 / 221007.9 -1.5-2.1
2017-Jan-10 19:00N 44°54' W 079°54'0 0.0 140 / 191010.7 -1.6-2.1
2017-Jan-10 18:00N 44°54' W 079°54'0 0.0 140 / 161012.6 -1.6-2.1
2017-Jan-10 17:00N 44°54' W 079°54'0 0.0 140 / 171014.5 -1.7-2.7
2017-Jan-10 15:00N 44°54' W 079°54'0 0.0 130 / 201018.1 -2.9-3.6
2017-Jan-10 14:00N 44°54' W 079°54'0 0.0 140 / 171019.4 -3.1-3.6
2017-Jan-10 13:00N 44°54' W 079°54'0 0.0 140 / 151020.5 -3.2-3.9
2017-Jan-10 12:00N 44°54' W 079°54'0 0.0 140 / 141021.1 -3.3-4.1
2017-Jan-10 11:00N 44°54' W 079°54'0 0.0 140 / 171022.0 -4.1-5.0
2017-Jan-10 10:00N 44°54' W 079°54'0 0.0 150 / 131023.4 -2.2-3.9
2017-Jan-10 09:00N 44°54' W 079°54'0 0.0 150 / 131024.6 -3.2-6.2
2017-Jan-10 08:00N 44°54' W 079°54'0 0.0 150 / 111025.3 -2.6-6.3
2017-Jan-10 07:00N 44°54' W 079°54'0 0.0 170 / 91026.0 -5.5-8.9
2017-Jan-10 06:00N 44°54' W 079°54'0 0.0 190 / 91026.0 -5.9-9.6
2017-Jan-10 05:00N 44°54' W 079°54'0 0.0 190 / 91025.9 -5.8-9.5
2017-Jan-10 04:00N 44°54' W 079°54'0 0.0 190 / 121026.7 -5.5-9.4
2017-Jan-10 03:00N 44°54' W 079°54'0 0.0 200 / 141027.1 -5.0-8.5
2017-Jan-10 02:00N 44°54' W 079°54'0 0.0 220 / 121027.1 -5.3-8.4
2017-Jan-10 01:00N 44°54' W 079°54'6 6.0 200 / 131027.0 -5.8-8.9
2017-Jan-10 00:00N 44°48' W 079°54'0 0.0 190 / 131026.9 -6.2-9.7
2017-Jan-09 23:00N 44°48' W 079°54'0 0.0 150 / 81026.7 -5.5-9.7
2017-Jan-09 22:00N 44°48' W 079°54'0 0.0 200 / 61026.5 -4.0-8.7
2017-Jan-09 21:00N 44°48' W 079°54'0 0.0 200 / 81025.8 -4.1-8.8
2017-Jan-09 20:00N 44°48' W 079°54'0 0.0 200 / 81025.7 -4.3-10.0
2017-Jan-09 18:00N 44°48' W 079°54'0 0.0 220 / 81026.1 -5.0-10.2
2017-Jan-09 17:00N 44°48' W 079°54'0 0.0 230 / 31026.6 -5.9-10.4
2017-Jan-09 16:00N 44°48' W 079°54'0 0.0 170 / 41027.4 -8.0-10.8
2017-Jan-09 15:00N 44°48' W 079°54'0 0.0 190 / 71028.4 -8.4-11.6
2017-Jan-09 14:00N 44°48' W 079°54'0 0.0 190 / 121028.4 -7.8-11.6
2017-Jan-09 13:00N 44°48' W 079°54'6 6.0 180 / 151028.4 -9.5-13.1
2017-Jan-09 12:00N 44°54' W 079°54'0 0.0 150 / 101029.3 -9.2-12.2
2017-Jan-09 11:00N 44°54' W 079°54'0 0.0 180 / 81030.7 -9.4-14.5
2017-Jan-09 10:00N 44°54' W 079°54'0 0.0 190 / 121031.1 -8.4-12.7
2017-Jan-09 09:00N 44°54' W 079°54'0 0.0 190 / 61032.3 -9.4-12.0
2017-Jan-09 08:00N 44°54' W 079°54'0 0.0 170 / 91032.2 -10.9-13.3
2017-Jan-09 07:00N 44°54' W 079°54'0 0.0 150 / 121032.4 -11.6-14.2
2017-Jan-09 06:00N 44°54' W 079°54'0 0.0 120 / 91033.2 -12.9-14.9
2017-Jan-09 05:00N 44°54' W 079°54'0 0.0 140 / 101034.0 -13.3-15.4
2017-Jan-09 04:00N 44°54' W 079°54'0 0.0 130 / 101034.4 -14.5-16.8
2017-Jan-09 03:00N 44°54' W 079°54'0 0.0 120 / 71034.9 -14.7-16.9
2017-Jan-09 02:00N 44°54' W 079°54'0 0.0 140 / 41035.5 -14.7-17.2
2017-Jan-09 01:00N 44°54' W 079°54'0 0.0 120 / 31035.5 -14.9-17.5
2017-Jan-09 00:00N 44°54' W 079°54'0 0.0 110 / 51035.1 -14.8-17.4
2017-Jan-08 23:00N 44°54' W 079°54'0 0.0 350 / 31034.5 -14.0-16.4
2017-Jan-08 22:00N 44°54' W 079°54'0 0.0 350 / 21034.0 -13.5-16.7
2017-Jan-08 21:00N 44°54' W 079°54'0 0.0 360 / 41033.5 -13.1-17.7
2017-Jan-08 20:00N 44°54' W 079°54'0 0.0 350 / 61033.3 -13.2-17.5
2017-Jan-08 19:00N 44°54' W 079°54'0 0.0 350 / 91033.1 -13.8-17.7
2017-Jan-08 18:00N 44°54' W 079°54'0 0.0 330 / 91032.8 -14.2-18.6
2017-Jan-08 17:00N 44°54' W 079°54'0 0.0 360 / 31032.8 -13.8-18.8
2017-Jan-08 16:00N 44°54' W 079°54'0 0.0 360 / 41032.3 -14.4-19.0
2017-Jan-08 15:00N 44°54' W 079°54'0 0.0 360 / 41031.0 -15.4-19.4
2017-Jan-08 14:00N 44°54' W 079°54'9 8.5 340 / 61029.6 -14.7-18.4
2017-Jan-08 13:00N 44°54' W 080°06'1312.7 350 / 181027.9 -12.9-14.9
2017-Jan-08 12:00N 45°06' W 080°12'1010.4 350 / 191026.9 -12.7-14.3
2017-Jan-08 11:00N 45°12' W 080°24'   350 / 181026.0 -12.4-13.9
Track history (hours):
 
Tides and Currents Weather Stations Pressure Air Temp Water Temp Dewpoint Dewpoint Depression Visibility Wind Speed Wind Dir Waves Ship Positions

CCGS Samuel Risley (Canada)

Medium Navaids Tender - Light Icebreaker

Last reported at 2017-Jan-18 11:00 UTC. Time now 2017-Jan-18 12:11 UTC.
Position N 43°18' W 082°24'.

Length 69.73 m; beam 13.7 m; draft 5.2 m.

Type: SAR. MMSI: 316001890.

Wind from 280 at 8 knots

Barometer 1015.1 mb
Air temperature 1.3 ° C
Dewpoint 1.2 ° C

Date/timePositionNaut miles runAvg speedWind from/ knotsBaromVisibWave heightAir tempDewpointWater temp
2017-Jan-18 11:00N 43°18' W 082°24'1212.0 280 / 81015.1 1.3 1.2
2017-Jan-18 10:00N 43°30' W 082°24'1212.0 280 / 71014.3 0.8 0.7
2017-Jan-18 09:00N 43°42' W 082°24'6 6.0 280 / 81013.5 1.1 1.0
2017-Jan-18 08:00N 43°48' W 082°24'1312.8 280 / 111012.8 1.5 1.4
2017-Jan-18 07:00N 44°00' W 082°30'1212.0 320 / 141012.2 2.1 2.0
2017-Jan-18 06:00N 44°12' W 082°30'7 7.4 320 / 151011.5 2.1 2.0
2017-Jan-18 05:00N 44°18' W 082°36'1312.7 310 / 131011.3 2.2 2.1
2017-Jan-18 04:00N 44°30' W 082°42'7 7.4 300 / 81011.1 2.2 2.1
2017-Jan-18 03:00N 44°36' W 082°48'1212.0 030 / 41011.0 2.0 1.7
2017-Jan-18 02:00N 44°48' W 082°48'7 7.4 040 / 101011.0 1.7 1.4
2017-Jan-18 01:00N 44°54' W 082°54'1212.0 360 / 81011.1 1.6 1.2
2017-Jan-18 00:00N 45°06' W 082°54'1514.7 020 / 71011.4 1.4 1.0
2017-Jan-17 23:00N 45°18' W 083°06'6 6.0 030 / 71011.4 1.6 1.1
2017-Jan-17 22:00N 45°24' W 083°06'1312.7 010 / 71011.4 1.3 0.6
2017-Jan-17 21:00N 45°36' W 083°12'6 6.0 360 / 71010.9 1.0-0.3
2017-Jan-17 20:00N 45°42' W 083°12'1212.0 350 / 91011.7 -0.4-2.3
2017-Jan-17 19:00N 45°54' W 083°12'7 7.3 010 / 91012.8 -1.4-3.5
2017-Jan-17 18:00N 46°00' W 083°18'1514.6 060 / 191013.2 -0.6-2.7
2017-Jan-17 17:00N 46°12' W 083°30'6 6.0 030 / 111014.6 -0.1-2.2
2017-Jan-17 16:00N 46°18' W 083°30'1212.0 060 / 81015.4 -0.4-2.6
2017-Jan-17 15:00N 46°06' W 083°30'1514.6 080 / 151016.4 -1.3-2.4
2017-Jan-17 14:00N 45°54' W 083°18'7 7.3 080 / 151016.6 -1.8-2.7
2017-Jan-17 13:00N 45°48' W 083°12'7 7.3 090 / 141016.5 0.2-1.0
2017-Jan-17 12:00N 45°42' W 083°06'1010.3 090 / 141016.5 1.0-0.1
2017-Jan-17 11:00N 45°36' W 082°54'7 7.3 090 / 171017.3 1.9 0.7
2017-Jan-17 10:00N 45°30' W 082°48'1312.6 110 / 121018.6 3.9-1.3
2017-Jan-17 09:00N 45°30' W 082°30'1010.3 120 / 101019.8 2.8-2.3
2017-Jan-17 08:00N 45°24' W 082°18'8 8.4 110 / 91020.2 2.5-2.2
2017-Jan-17 07:00N 45°24' W 082°06'8 8.4 150 / 71020.8 2.4-2.7
2017-Jan-17 06:00N 45°24' W 081°54'1010.3 170 / 61021.3 1.8-1.0
2017-Jan-17 05:00N 45°18' W 081°42'1312.7 190 / 61022.0 1.6-0.8
2017-Jan-17 04:00N 45°18' W 081°24'1010.4 200 / 121022.6 1.6-1.1
2017-Jan-17 03:00N 45°12' W 081°12'1514.7 190 / 111023.2 0.8-0.8
2017-Jan-17 02:00N 45°00' W 081°00'7 7.4 160 / 91023.5 0.5-2.0
2017-Jan-17 01:00N 44°54' W 080°54'1212.0 180 / 111024.2 0.2-3.4
2017-Jan-17 00:00N 44°42' W 080°54'6 6.0 220 / 101024.8 -0.3-3.6
2017-Jan-16 23:00N 44°36' W 080°54'0 0.0 180 / 31024.8 1.6-3.2
2017-Jan-16 22:00N 44°36' W 080°54'0 0.0 160 / 21024.8 0.7-3.4
2017-Jan-16 21:00N 44°36' W 080°54'0 0.0 200 / 41024.6 1.7-3.6
2017-Jan-16 20:00N 44°36' W 080°54'0 0.0 210 / 41024.4 1.5-3.6
2017-Jan-16 19:00N 44°36' W 080°54'0 0.0 200 / 41025.0 1.3-3.0
2017-Jan-16 18:00N 44°36' W 080°54'0 0.0 200 / 61026.0 0.5-3.4
2017-Jan-16 17:00N 44°36' W 080°54'0 0.0 200 / 61026.7 -0.1-3.7
2017-Jan-16 16:00N 44°36' W 080°54'0 0.0 200 / 51027.5 -0.6-3.9
2017-Jan-16 15:00N 44°36' W 080°54'0 0.0 200 / 61027.3 -1.2-4.1
2017-Jan-16 14:00N 44°36' W 080°54'0 0.0 180 / 41027.0 -1.7-4.1
2017-Jan-16 13:00N 44°36' W 080°54'0 0.0 180 / 31026.9 -2.6-4.6
2017-Jan-16 12:00N 44°36' W 080°54'0 0.0 180 / 31026.9 -3.2-4.8
2017-Jan-16 11:00N 44°36' W 080°54'0 0.0 170 / 51026.4 -3.6-5.2
2017-Jan-16 10:00N 44°36' W 080°54'0 0.0 170 / 51026.6 -3.3-5.2
2017-Jan-16 09:00N 44°36' W 080°54'0 0.0 170 / 71027.0 -3.0-5.1
2017-Jan-16 08:00N 44°36' W 080°54'0 0.0 180 / 31027.3 -3.5-5.9
2017-Jan-16 07:00N 44°36' W 080°54'0 0.0 190 / 31027.0 -3.9-6.2
2017-Jan-16 06:00N 44°36' W 080°54'0 0.0 170 / 51027.2 -3.2-5.7
2017-Jan-16 05:00N 44°36' W 080°54'0 0.0 170 / 61027.4 -3.2-5.8
2017-Jan-16 04:00N 44°36' W 080°54'0 0.0 170 / 41027.7 -2.9-5.9
2017-Jan-16 03:00N 44°36' W 080°54'0 0.0 170 / 31027.8 -2.7-6.2
2017-Jan-16 02:00N 44°36' W 080°54'0 0.0 190 / 31027.7 -3.2-6.4
2017-Jan-16 01:00N 44°36' W 080°54'0 0.0 170 / 31028.0 -1.9-6.1
2017-Jan-16 00:00N 44°36' W 080°54'0 0.0 200 / 31028.4 -1.8-6.6
2017-Jan-15 23:00N 44°36' W 080°54'0 0.0 220 / 51028.1 -1.1-6.1
2017-Jan-15 22:00N 44°36' W 080°54'0 0.0 210 / 61028.2 -0.7-5.9
2017-Jan-15 21:00N 44°36' W 080°54'0 0.0 200 / 51028.2 -0.0-5.9
2017-Jan-15 20:00N 44°36' W 080°54'0 0.0 190 / 21028.6 0.7-4.5
2017-Jan-15 19:00N 44°36' W 080°54'0 0.0 190 / 41028.4 0.1-5.8
2017-Jan-15 18:00N 44°36' W 080°54'0 0.0 160 / 51029.3 -0.6-6.2
2017-Jan-15 17:00N 44°36' W 080°54'0 0.0 200 / 21030.0 0.1-6.5
2017-Jan-15 16:00N 44°36' W 080°54'0 0.0 130 / 41030.6 -1.8-7.2
2017-Jan-15 15:00N 44°36' W 080°54'0 0.0 130 / 11030.7 -1.6-6.8
2017-Jan-15 14:00N 44°36' W 080°54'0 0.0 010 / 31030.4 -2.2-7.1
2017-Jan-15 13:00N 44°36' W 080°54'0 0.0 330 / 61030.2 -2.9-7.0
2017-Jan-15 12:00N 44°36' W 080°54'0 0.0 330 / 61029.9 -3.0-7.7
2017-Jan-15 11:00N 44°36' W 080°54'0 0.0 330 / 31029.5 -2.8-7.1
2017-Jan-15 10:00N 44°36' W 080°54'0 0.0 330 / 41029.2 -2.6-6.8
2017-Jan-15 09:00N 44°36' W 080°54'0 0.0 340 / 61028.8 -2.1-6.2
2017-Jan-15 08:00N 44°36' W 080°54'0 0.0 300 / 11028.6 -1.8-6.1
2017-Jan-15 07:00N 44°36' W 080°54'0 0.0 250 / 21028.4 -2.0-6.2
2017-Jan-15 06:00N 44°36' W 080°54'0 0.0 290 / 11028.3 -2.3-6.1
2017-Jan-15 05:00N 44°36' W 080°54'0 0.0 250 / 11028.5 -2.6-6.8
2017-Jan-15 04:00N 44°36' W 080°54'0 0.0 200 / 21028.3 -2.3-7.2
2017-Jan-15 03:00N 44°36' W 080°54'0 0.0 190 / 31028.5 -3.1-7.7
2017-Jan-15 02:00N 44°36' W 080°54'0 0.0 190 / 21028.2 -3.0-8.1
2017-Jan-15 01:00N 44°36' W 080°54'0 0.0 190 / 41028.2 -3.1-7.8
2017-Jan-15 00:00N 44°36' W 080°54'0 0.0 190 / 31028.3 -2.7-7.4
2017-Jan-14 23:00N 44°36' W 080°54'0 0.0 160 / 51028.2 -1.9-5.8
2017-Jan-14 22:00N 44°36' W 080°54'0 0.0 170 / 51028.5 -1.9-6.3
2017-Jan-14 21:00N 44°36' W 080°54'0 0.0 200 / 41028.6 -2.5-7.3
2017-Jan-14 20:00N 44°36' W 080°54'0 0.0 210 / 51029.3 -3.0-8.0
2017-Jan-14 19:00N 44°36' W 080°54'0 0.0 210 / 41030.0 -3.1-8.3
2017-Jan-14 18:00N 44°36' W 080°54'0 0.0 220 / 61031.1 -3.8-9.0
2017-Jan-14 17:00N 44°36' W 080°54'0 0.0 170 / 51032.5 -3.7-9.0
2017-Jan-14 16:00N 44°36' W 080°54'0 0.0 190 / 71033.8 -5.0-9.8
2017-Jan-14 15:00N 44°36' W 080°54'0 0.0 170 / 51035.0 -5.3-9.9
2017-Jan-14 14:00N 44°36' W 080°54'0 0.0 160 / 61035.8 -6.2-10.6
2017-Jan-14 13:00N 44°36' W 080°54'0 0.0 160 / 61036.5 -7.1-11.6
2017-Jan-14 12:00N 44°36' W 080°54'0 0.0 160 / 51037.2 -6.9-11.5
2017-Jan-14 10:00N 44°36' W 080°54'0 0.0 180 / 21038.8 -7.6-13.0
2017-Jan-14 09:00N 44°36' W 080°54'0 0.0 170 / 31039.2 -7.7-13.5
2017-Jan-14 08:00N 44°36' W 080°54'0 0.0 140 / 31039.9 -8.4-13.9
2017-Jan-14 07:00N 44°36' W 080°54'0 0.0 150 / 41040.6 -8.6-14.2
2017-Jan-14 06:00N 44°36' W 080°54'0 0.0 120 / 21041.7 -9.0-14.5
2017-Jan-14 05:00N 44°36' W 080°54'0 0.0 140 / 41042.4 -8.9-14.5
2017-Jan-14 04:00N 44°36' W 080°54'0 0.0 090 / 31042.8 -9.0-14.4
2017-Jan-14 03:00N 44°36' W 080°54'0 0.0 050 / 31043.6 -8.3-13.6
2017-Jan-14 02:00N 44°36' W 080°54'0 0.0 330 / 81044.2 -8.9-14.2
2017-Jan-14 01:00N 44°36' W 080°54'0 0.0 340 / 71044.3 -9.1-15.1
2017-Jan-14 00:00N 44°36' W 080°54'0 0.0 350 / 51044.5 -8.9-14.7
2017-Jan-13 23:00N 44°36' W 080°54'0 0.0 270 / 11043.8 -8.1-14.0
2017-Jan-13 22:00N 44°36' W 080°54'0 0.0 330 / 51043.2 -7.6-13.7
2017-Jan-13 21:00N 44°36' W 080°54'0 0.0 360 / 51042.8 -7.1-12.9
2017-Jan-13 20:00N 44°36' W 080°54'1212.0 350 / 91041.8 -6.9-12.5
2017-Jan-13 19:00N 44°48' W 080°54'6 6.0 340 / 151041.2 -7.1-11.8
2017-Jan-13 18:00N 44°54' W 080°54'1514.7 330 / 151041.0 -6.4-11.4
2017-Jan-13 17:00N 45°06' W 081°06'1514.7 340 / 161041.2 -5.7-11.8
2017-Jan-13 16:00N 45°18' W 081°18'8 8.4 300 / 151040.6 -8.3-12.8
2017-Jan-13 15:00N 45°18' W 081°30'1312.7 330 / 171039.5 -8.0-11.8
2017-Jan-13 14:00N 45°30' W 081°36'1212.0 340 / 171038.3 -8.0-11.8
2017-Jan-13 13:00N 45°42' W 081°36'1212.0 320 / 111036.2 -9.0-13.6
2017-Jan-13 12:00N 45°54' W 081°36'4 4.2 300 / 201034.3 -8.3-13.8
2017-Jan-13 11:00N 45°54' W 081°42'0 0.0 300 / 51032.5 -9.0-13.8
2017-Jan-13 10:00N 45°54' W 081°42'0 0.0 300 / 61031.5 -9.0-13.5
2017-Jan-13 09:00N 45°54' W 081°42'0 0.0 300 / 71029.5 -8.9-13.3
2017-Jan-13 08:00N 45°54' W 081°42'0 0.0 300 / 81027.8 -8.6-13.3
2017-Jan-13 07:00N 45°54' W 081°42'0 0.0 300 / 101025.4 -8.5-13.1
2017-Jan-13 06:00N 45°54' W 081°42'0 0.0 300 / 101023.0 -7.7-12.1
2017-Jan-13 05:00N 45°54' W 081°42'0 0.0 280 / 241021.7 -7.3-11.9
2017-Jan-13 03:00N 45°54' W 081°42'0 0.0 230 / 151019.1 -4.3-8.0
2017-Jan-13 02:00N 45°54' W 081°42'0 0.0 220 / 91018.9 -3.7-8.3
2017-Jan-13 01:00N 45°54' W 081°42'0 0.0 180 / 101018.7 -7.3-10.3
2017-Jan-13 00:00N 45°54' W 081°42'0 0.0 220 / 91017.9 -8.1-10.9
2017-Jan-12 23:00N 45°54' W 081°42'0 0.0 200 / 41017.4 -8.7-11.4
2017-Jan-12 22:00N 45°54' W 081°42'0 0.0 260 / 61016.9 -6.4-10.8
2017-Jan-12 21:00N 45°54' W 081°42'0 0.0 270 / 41016.3 -6.1-11.4
2017-Jan-12 20:00N 45°54' W 081°42'0 0.0 340 / 21015.5 -7.9-12.8
2017-Jan-12 19:00N 45°54' W 081°42'0 0.0 340 / 31015.2 -8.2-12.5
2017-Jan-12 18:00N 45°54' W 081°42'0 0.0 340 / 61015.4 -8.9-12.5
2017-Jan-12 17:00N 45°54' W 081°42'0 0.0 350 / 31015.8 -8.8-12.2
2017-Jan-12 16:00N 45°54' W 081°42'0 0.0 340 / 71016.3 -8.8-11.7
2017-Jan-12 15:00N 45°54' W 081°42'0 0.0 350 / 111014.2 -8.2-10.6
2017-Jan-12 14:00N 45°54' W 081°42'0 0.0 010 / 101013.7 -7.3-9.6
2017-Jan-12 13:00N 45°54' W 081°42'0 0.0 360 / 91013.1 -7.1-9.4
2017-Jan-12 12:00N 45°54' W 081°42'0 0.0 360 / 101013.1 -5.9-8.6
2017-Jan-12 11:00N 45°54' W 081°42'0 0.0 020 / 131011.3 -6.4-9.5
2017-Jan-12 10:00N 45°54' W 081°42'0 0.0 020 / 141011.2 -5.9-9.0
2017-Jan-12 09:00N 45°54' W 081°42'0 0.0 010 / 151010.4 -5.4-7.8
2017-Jan-12 08:00N 45°54' W 081°42'0 0.0 360 / 111009.1 -4.5-6.1
2017-Jan-12 07:00N 45°54' W 081°42'0 0.0 330 / 121008.9 -3.7-4.6
2017-Jan-12 06:00N 45°54' W 081°42'0 0.0 340 / 41008.0 -2.9-3.2
2017-Jan-12 05:00N 45°54' W 081°42'7 7.3 280 / 141008.0 -3.1-3.8
2017-Jan-12 04:00N 45°48' W 081°36'6 6.0 290 / 191007.8 -2.0-3.1
2017-Jan-12 03:00N 45°42' W 081°36'1212.0 270 / 141007.2 0.6-0.5
2017-Jan-12 02:00N 45°30' W 081°36'1312.7 170 / 111008.5 3.2 1.7
2017-Jan-12 01:00N 45°18' W 081°30'1010.4 160 / 81007.5 3.7 1.7
2017-Jan-12 00:00N 45°12' W 081°18'7 7.3 210 / 181008.7 4.6 2.4
2017-Jan-11 23:00N 45°06' W 081°12'1717.5 140 / 81008.3 5.3 0.1
2017-Jan-11 22:00N 44°54' W 080°54'1312.8 110 / 91009.7 4.2-1.7
2017-Jan-11 21:00N 44°54' W 080°36'9 8.5 100 / 121011.4 3.5-1.0
2017-Jan-11 20:00N 44°54' W 080°24'1312.8 100 / 101013.3 2.7-2.7
2017-Jan-11 19:00N 44°54' W 080°06'9 8.5 160 / 151014.2 3.0-3.4
2017-Jan-11 18:00N 44°54' W 079°54'0 0.0 130 / 81014.1 2.3-5.0
2017-Jan-11 17:00N 44°54' W 079°54'0 0.0 150 / 11015.8 1.5-4.5
2017-Jan-11 16:00N 44°54' W 079°54'0 0.0 210 / 101017.0 0.6-4.3
2017-Jan-11 15:00N 44°54' W 079°54'0 0.0 240 / 141016.3 0.4-3.9
2017-Jan-11 14:00N 44°54' W 079°54'0 0.0 240 / 191015.7 0.6-3.9
2017-Jan-11 13:00N 44°54' W 079°54'0 0.0 250 / 191014.0 1.1-4.0
2017-Jan-11 12:00N 44°54' W 079°54'0 0.0 250 / 191011.2 1.7-4.2
2017-Jan-11 11:00N 44°54' W 079°54'0 0.0 240 / 231008.4 2.0-2.7
2017-Jan-11 09:00N 44°54' W 079°54'0 0.0 250 / 231004.0 2.6-1.6
2017-Jan-11 06:00N 44°54' W 079°54'0 0.0 240 / 22994.9 4.5 2.0
2017-Jan-11 05:00N 44°54' W 079°54'0 0.0 190 / 17993.2 6.9 4.6
2017-Jan-11 04:00N 44°54' W 079°54'0 0.0 170 / 20993.3 6.5 4.5
2017-Jan-11 03:00N 44°54' W 079°54'0 0.0 160 / 20994.5 5.1 3.7
2017-Jan-11 01:00N 44°54' W 079°54'0 0.0 150 / 25997.6 2.9 1.6
2017-Jan-10 23:00N 44°54' W 079°54'0 0.0 140 / 241001.9 0.9 0.5
2017-Jan-10 22:00N 44°54' W 079°54'0 0.0 140 / 191004.7 -0.0-0.4
2017-Jan-10 21:00N 44°54' W 079°54'0 0.0 140 / 191006.6 -0.6-1.7
2017-Jan-10 20:00N 44°54' W 079°54'0 0.0 140 / 221007.9 -1.5-2.1
2017-Jan-10 19:00N 44°54' W 079°54'0 0.0 140 / 191010.7 -1.6-2.1
2017-Jan-10 18:00N 44°54' W 079°54'0 0.0 140 / 161012.6 -1.6-2.1
2017-Jan-10 17:00N 44°54' W 079°54'0 0.0 140 / 171014.5 -1.7-2.7
2017-Jan-10 15:00N 44°54' W 079°54'0 0.0 130 / 201018.1 -2.9-3.6
2017-Jan-10 14:00N 44°54' W 079°54'0 0.0 140 / 171019.4 -3.1-3.6
2017-Jan-10 13:00N 44°54' W 079°54'0 0.0 140 / 151020.5 -3.2-3.9
2017-Jan-10 12:00N 44°54' W 079°54'0 0.0 140 / 141021.1 -3.3-4.1
2017-Jan-10 11:00N 44°54' W 079°54'0 0.0 140 / 171022.0 -4.1-5.0
2017-Jan-10 10:00N 44°54' W 079°54'0 0.0 150 / 131023.4 -2.2-3.9
2017-Jan-10 09:00N 44°54' W 079°54'0 0.0 150 / 131024.6 -3.2-6.2
2017-Jan-10 08:00N 44°54' W 079°54'0 0.0 150 / 111025.3 -2.6-6.3
2017-Jan-10 07:00N 44°54' W 079°54'0 0.0 170 / 91026.0 -5.5-8.9
2017-Jan-10 06:00N 44°54' W 079°54'0 0.0 190 / 91026.0 -5.9-9.6
2017-Jan-10 05:00N 44°54' W 079°54'0 0.0 190 / 91025.9 -5.8-9.5
2017-Jan-10 04:00N 44°54' W 079°54'0 0.0 190 / 121026.7 -5.5-9.4
2017-Jan-10 03:00N 44°54' W 079°54'0 0.0 200 / 141027.1 -5.0-8.5
2017-Jan-10 02:00N 44°54' W 079°54'0 0.0 220 / 121027.1 -5.3-8.4
2017-Jan-10 01:00N 44°54' W 079°54'6 6.0 200 / 131027.0 -5.8-8.9
2017-Jan-10 00:00N 44°48' W 079°54'0 0.0 190 / 131026.9 -6.2-9.7
2017-Jan-09 23:00N 44°48' W 079°54'0 0.0 150 / 81026.7 -5.5-9.7
2017-Jan-09 22:00N 44°48' W 079°54'0 0.0 200 / 61026.5 -4.0-8.7
2017-Jan-09 21:00N 44°48' W 079°54'0 0.0 200 / 81025.8 -4.1-8.8
2017-Jan-09 20:00N 44°48' W 079°54'0 0.0 200 / 81025.7 -4.3-10.0
2017-Jan-09 18:00N 44°48' W 079°54'0 0.0 220 / 81026.1 -5.0-10.2
2017-Jan-09 17:00N 44°48' W 079°54'0 0.0 230 / 31026.6 -5.9-10.4
2017-Jan-09 16:00N 44°48' W 079°54'0 0.0 170 / 41027.4 -8.0-10.8
2017-Jan-09 15:00N 44°48' W 079°54'0 0.0 190 / 71028.4 -8.4-11.6
2017-Jan-09 14:00N 44°48' W 079°54'0 0.0 190 / 121028.4 -7.8-11.6
2017-Jan-09 13:00N 44°48' W 079°54'6 6.0 180 / 151028.4 -9.5-13.1
2017-Jan-09 12:00N 44°54' W 079°54'0 0.0 150 / 101029.3 -9.2-12.2
2017-Jan-09 11:00N 44°54' W 079°54'0 0.0 180 / 81030.7 -9.4-14.5
2017-Jan-09 10:00N 44°54' W 079°54'0 0.0 190 / 121031.1 -8.4-12.7
2017-Jan-09 09:00N 44°54' W 079°54'0 0.0 190 / 61032.3 -9.4-12.0
2017-Jan-09 08:00N 44°54' W 079°54'0 0.0 170 / 91032.2 -10.9-13.3
2017-Jan-09 07:00N 44°54' W 079°54'0 0.0 150 / 121032.4 -11.6-14.2
2017-Jan-09 06:00N 44°54' W 079°54'0 0.0 120 / 91033.2 -12.9-14.9
2017-Jan-09 05:00N 44°54' W 079°54'0 0.0 140 / 101034.0 -13.3-15.4
2017-Jan-09 04:00N 44°54' W 079°54'0 0.0 130 / 101034.4 -14.5-16.8
2017-Jan-09 03:00N 44°54' W 079°54'0 0.0 120 / 71034.9 -14.7-16.9
2017-Jan-09 02:00N 44°54' W 079°54'0 0.0 140 / 41035.5 -14.7-17.2
2017-Jan-09 01:00N 44°54' W 079°54'0 0.0 120 / 31035.5 -14.9-17.5
2017-Jan-09 00:00N 44°54' W 079°54'0 0.0 110 / 51035.1 -14.8-17.4
2017-Jan-08 23:00N 44°54' W 079°54'0 0.0 350 / 31034.5 -14.0-16.4
2017-Jan-08 22:00N 44°54' W 079°54'0 0.0 350 / 21034.0 -13.5-16.7
2017-Jan-08 21:00N 44°54' W 079°54'0 0.0 360 / 41033.5 -13.1-17.7
2017-Jan-08 20:00N 44°54' W 079°54'0 0.0 350 / 61033.3 -13.2-17.5
2017-Jan-08 19:00N 44°54' W 079°54'0 0.0 350 / 91033.1 -13.8-17.7
2017-Jan-08 18:00N 44°54' W 079°54'0 0.0 330 / 91032.8 -14.2-18.6
2017-Jan-08 17:00N 44°54' W 079°54'0 0.0 360 / 31032.8 -13.8-18.8
2017-Jan-08 16:00N 44°54' W 079°54'0 0.0 360 / 41032.3 -14.4-19.0
2017-Jan-08 15:00N 44°54' W 079°54'0 0.0 360 / 41031.0 -15.4-19.4
2017-Jan-08 14:00N 44°54' W 079°54'9 8.5 340 / 61029.6 -14.7-18.4
2017-Jan-08 13:00N 44°54' W 080°06'1312.7 350 / 181027.9 -12.9-14.9
2017-Jan-08 12:00N 45°06' W 080°12'1010.4 350 / 191026.9 -12.7-14.3
2017-Jan-08 11:00N 45°12' W 080°24'   350 / 181026.0 -12.4-13.9

Dump ship's entire track history